Latest Coastal Weather Observations for Warrnambool

IDV60701

Issued at 12:22 pm EDT Friday 24 February 2017 (issued every 10 minutes, with the page automatically refreshed every 10 minutes)

About coastal observations | Map of coastal stations | Coastal observations for VIC | Marine services | Other Formats
Station Details ID: 090186 Name: WARRNAMBOOL AIRPORT NDB Lat: -38.29 Lon: 142.45 Height: 70.8 m
Data from the previous 72 hours. | See also: Recent months at Warrnambool
Date/Time
EDT
Temp
°C
Wind Pressure Rain since
9am
mm
Weather Cloud Vis
km
Sea
Height
m
Swell
Dir  Spd
kts
Gust
kts
hPa Trend Height
m
Period
s
Dir
24/12:00pm 17.1 SSW 13 17 1026.8 - 0.2 - Cloudy 10 - - - -
24/11:30am 16.9 SSW 11 15 1026.6 - 0.2 - Cloudy 10 - - - -
24/11:00am 16.8 SSW 12 16 1026.4 - 0.2 - Cloudy 10 - - - -
24/10:30am 16.3 SSW 9 13 1026.3 - 0.0 - Cloudy 10 - - - -
24/10:00am 16.1 SSW 10 13 1026.2 - 0.0 - Cloudy 10 - - - -
24/09:30am 15.8 SW 11 14 1025.9 - 0.0 - Cloudy 10 - - - -
24/09:00am 15.3 SSW 9 12 1025.5 - 0.2 - Cloudy 10 - - - -
24/08:30am 14.8 SSW 6 7 1025.3 - 0.2 - Cloudy 10 - - - -
24/08:00am 14.3 SW 5 6 1024.9 - 0.2 - Cloudy 10 - - - -
24/07:30am 14.1 SSW 4 7 1024.5 - 0.2 - Cloudy 10 - - - -
24/07:00am 13.8 SSW 5 5 1024.4 - 0.2 - Cloudy 10 - - - -
24/06:30am 13.6 SSW 5 6 1024.0 - 0.2 - Cloudy 10 - - - -
24/06:00am 13.8 S 7 8 1023.8 - 0.2 - Cloudy 10 - - - -
24/05:30am 13.4 SW 3 4 1023.7 - 0.2 - Cloudy 10 - - - -
24/05:00am 13.5 WSW 5 6 1023.5 - 0.2 - Cloudy 10 - - - -
24/04:30am 13.4 WSW 5 6 1023.6 - 0.2 - Cloudy 10 - - - -
24/04:00am 13.3 SW 6 7 1023.4 - 0.2 - Cloudy 10 - - - -
24/03:30am 13.6 SW 7 8 1023.4 - 0.2 - Cloudy 10 - - - -
24/03:00am 13.6 SSW 6 7 1023.5 - 0.2 - Cloudy 10 - - - -
24/02:30am 13.7 SW 7 9 1023.5 - 0.2 - Cloudy 10 - - - -
24/02:00am 13.8 SSW 5 7 1023.5 - 0.2 - Cloudy 10 - - - -
24/01:30am 14.3 SSW 9 11 1024.0 - 0.2 - Cloudy 10 - - - -
24/01:00am 14.1 SW 6 9 1024.2 - 0.2 - Partly cloudy 10 - - - -
24/12:30am 14.1 SSW 8 9 1024.0 - 0.2 - Cloudy 10 - - - -
24/12:00am 14.2 SSW 8 9 1023.8 - 0.2 Recent precip. Cloudy 10 - - - -
 
Date/Time
EDT
Temp
°C
Wind Pressure Rain since
9am
mm
Weather Cloud Vis
km
Sea
Height
m
Swell
Dir  Spd
kts
Gust
kts
hPa Trend Height
m
Period
s
Dir
23/11:30pm 14.3 SSW 7 9 1023.8 - 0.2 - Partly cloudy 10 - - - -
23/11:03pm 14.3 S 9 10 1023.8 - 0.0 - Partly cloudy 10 - - - -
23/11:00pm 14.3 S 8 10 1023.8 - 0.0 - Partly cloudy 10 - - - -
23/10:41pm 14.3 SSW 4 5 1023.8 - 0.0 - Partly cloudy 10 - - - -
23/10:30pm 14.2 S 5 6 1023.7 - 0.0 - Partly cloudy 10 - - - -
23/10:25pm 14.3 S 6 7 1023.7 - 0.0 - Partly cloudy 10 - - - -
23/10:09pm 14.3 S 6 7 1023.6 - 0.0 - Partly cloudy 5 - - - -
23/10:00pm 14.3 S 6 8 1023.5 - 0.0 - Partly cloudy 6 - - - -
23/09:59pm 14.3 S 6 8 1023.5 - 0.0 - Partly cloudy 5 - - - -
23/09:43pm 14.4 SW 8 10 1023.4 - 0.0 - Partly cloudy 5 - - - -
23/09:37pm 14.5 SW 7 8 1023.3 - 0.0 - Partly cloudy 10 - - - -
23/09:30pm 14.5 SSW 6 7 1023.2 - 0.0 - Partly cloudy 10 - - - -
23/09:00pm 14.5 SSW 7 9 1022.6 - 0.0 Showers Cloudy 10 - - - -
23/08:38pm 14.4 SSW 9 13 1022.4 - 0.0 - Partly cloudy 10 - - - -
23/08:30pm 14.5 SSW 9 13 1022.3 - 0.0 - Partly cloudy 10 - - - -
23/08:16pm 14.5 SSW 9 11 1022.1 - 0.0 - Partly cloudy 10 - - - -
23/08:11pm 14.5 SSW 9 11 1022.1 - 0.0 - Partly cloudy 10 - - - -
23/08:00pm 14.5 SSW 10 12 1021.9 - 0.0 - Partly cloudy 5 - - - -
23/07:53pm 14.7 SSW 10 13 1021.8 - 0.0 - Partly cloudy 5 - - - -
23/07:45pm 14.8 SW 10 13 1021.7 - 0.0 - Partly cloudy 10 - - - -
23/07:30pm 15.0 SW 12 14 1021.6 - 0.0 - Partly cloudy 4 - - - -
23/07:00pm 15.4 SW 13 17 1021.3 - 0.0 - Partly cloudy 3 - - - -
23/06:57pm 15.6 SW 12 17 1021.3 - 0.0 - Partly cloudy 5 - - - -
23/06:30pm 15.8 SW 12 16 1021.1 - 0.0 - Partly cloudy 8 - - - -
23/06:00pm 16.5 SW 13 17 1020.8 - 0.0 - Cloudy 10 - - - -
23/05:30pm 17.1 SW 13 16 1020.5 - 0.0 - Cloudy 10 - - - -
23/05:06pm 17.3 SW 12 15 1020.3 - 0.0 - Partly cloudy 10 - - - -
23/05:00pm 16.9 SW 13 17 1020.3 - 0.0 - Partly cloudy 10 - - - -
23/04:47pm 16.3 SW 15 19 1020.3 - 0.0 - Partly cloudy 10 - - - -
23/04:30pm 17.7 SW 14 18 1020.1 - 0.0 - Cloudy 10 - - - -
23/04:08pm 18.0 SW 13 18 1019.8 - 0.0 - Partly cloudy 10 - - - -
23/04:00pm 18.4 SW 13 16 1019.7 - 0.0 - Partly cloudy 10 - - - -
23/03:32pm 18.2 SW 14 17 1019.6 - 0.0 - Partly cloudy 10 - - - -
23/03:30pm 18.4 SW 14 17 1019.6 - 0.0 - Partly cloudy 10 - - - -
23/03:00pm 18.3 SW 12 15 1019.4 - 0.0 Recent precip. Cloudy 10 - - - -
23/02:30pm 17.9 SW 11 14 1019.3 - 0.0 - Partly cloudy 10 - - - -
23/02:00pm 19.0 WSW 9 13 1019.1 - 0.0 - Partly cloudy 10 - - - -
23/01:30pm 18.3 WSW 13 15 1019.0 - 0.0 - Partly cloudy 10 - - - -
23/01:00pm 18.5 WSW 13 17 1018.7 - 0.0 - Partly cloudy 10 - - - -
23/12:30pm 18.6 SW 12 17 1018.8 - 0.0 - Partly cloudy 10 - - - -
23/12:00pm 18.7 SW 13 17 1018.8 - 0.0 - Cloudy 10 - - - -
23/11:30am 18.8 WSW 15 19 1018.5 - 0.0 - Partly cloudy 10 - - - -
23/11:00am 18.5 WSW 12 16 1018.1 - 0.0 - Partly cloudy 10 - - - -
23/10:30am 18.0 WSW 18 23 1017.8 - 0.0 - Partly cloudy 10 - - - -
23/10:00am 19.5 WSW 15 21 1017.4 - 0.0 - Partly cloudy 10 - - - -
23/09:30am 18.8 WSW 17 23 1016.8 - 0.0 - Partly cloudy 10 - - - -
23/09:00am 17.4 W 13 19 1016.4 - 0.0 - Cloudy 10 - - - -
23/08:30am 16.9 W 14 19 1015.9 - 0.0 - Partly cloudy 10 - - - -
23/08:00am 16.1 WNW 11 17 1015.2 - 0.0 - Partly cloudy 10 - - - -
23/07:30am 15.8 NW 8 11 1014.7 - 0.0 - Partly cloudy 10 - - - -
23/07:00am 16.3 WNW 10 17 1014.2 - 0.0 - Partly cloudy 10 - - - -
23/06:30am 16.9 WNW 14 21 1013.5 - 0.0 - Cloudy 10 - - - -
23/06:00am 16.8 WNW 11 18 1013.1 - 0.0 - Cloudy 10 - - - -
23/05:30am 16.0 NW 14 17 1012.6 - 0.0 - Partly cloudy 10 - - - -
23/05:00am 16.3 WNW 9 15 1012.6 - 0.0 - Cloudy 10 - - - -
23/04:30am 15.7 NW 10 14 1012.1 - 0.0 - Partly cloudy 10 - - - -
23/04:00am 15.3 NNW 12 16 1011.8 - 0.0 - - 10 - - - -
23/03:30am 15.5 NW 10 13 1011.6 - 0.0 - - 10 - - - -
23/03:00am 15.4 NNW 8 11 1011.6 - 0.0 - Partly cloudy 10 - - - -
23/02:30am 15.8 NW 9 12 1011.6 - 0.0 - Partly cloudy 10 - - - -
23/02:00am 16.1 NW 11 16 1011.5 - 0.0 - - 10 - - - -
23/01:30am 17.0 NW 12 15 1011.4 - 0.0 - - 10 - - - -
23/01:00am 17.0 NW 12 17 1011.2 - 0.0 - - 10 - - - -
23/12:30am 17.6 NW 13 16 1011.0 - 0.0 - - 10 - - - -
23/12:00am 17.5 NW 11 15 1011.2 - 0.0 - - 10 - - - -
 
Date/Time
EDT
Temp
°C
Wind Pressure Rain since
9am
mm
Weather Cloud Vis
km
Sea
Height
m
Swell
Dir  Spd
kts
Gust
kts
hPa Trend Height
m
Period
s
Dir
22/11:30pm 18.3 NW 13 20 1010.9 - 0.0 - - 10 - - - -
22/11:00pm 18.3 NW 12 16 1010.8 - 0.0 - Partly cloudy 10 - - - -
22/10:30pm 17.9 NW 9 17 1010.4 - 0.0 - - 10 - - - -
22/10:00pm 18.5 NW 5 6 1010.1 - 0.0 - Partly cloudy 10 - - - -
22/09:30pm 18.0 NNW 5 8 1009.3 - 0.0 - Cloudy 10 - - - -
22/09:00pm 18.9 WNW 4 6 1008.9 - 0.0 - Cloudy 10 - - - -
22/08:30pm 19.3 W 7 8 1008.4 - 0.0 - - 10 - - - -
22/08:00pm 20.0 W 9 14 1007.9 - 0.0 - Partly cloudy 10 - - - -
22/07:30pm 20.4 WSW 13 17 1007.6 - 0.0 - - 10 - - - -
22/07:00pm 20.2 SW 14 20 1007.3 - 0.0 - - 10 - - - -
22/06:30pm 20.5 SW 16 22 1007.2 - 0.0 - - 10 - - - -
22/06:00pm 21.9 SW 18 28 1006.7 - 0.0 - Mostly cloudy 10 - - - -
22/05:53pm 22.1 SW 18 28 1006.6 - 0.0 - - 10 - - - -
22/05:30pm 23.1 SW 23 29 1006.0 - 0.0 - - 10 - - - -
22/05:22pm 24.3 SW 20 28 1005.8 - 0.0 - - 10 - - - -
22/05:14pm 25.7 NW 18 30 1005.4 - 0.0 - - 10 - - - -
22/05:12pm 31.6 NW 18 30 1005.8 - 0.0 - - 10 - - - -
22/05:00pm 33.7 NNW 23 33 1004.7 - 0.0 - - 10 - - - -
22/04:35pm 33.8 NNW 20 31 1004.8 - 0.0 - - 10 - - - -
22/04:30pm 33.8 NNW 19 26 1004.9 - 0.0 - - 10 - - - -
22/04:00pm 33.1 NNW 23 33 1005.4 - 0.0 - - 10 - - - -
22/03:30pm 33.2 NNW 22 32 1006.2 - 0.0 - - 10 - - - -
22/03:05pm 33.3 N 22 32 1006.6 - 0.0 - - 10 - - - -
22/03:00pm 33.0 N 23 31 1006.5 - 0.0 - Mostly clear 10 - - - -
22/02:30pm 31.9 N 24 34 1007.3 - 0.0 - - 10 - - - -
22/02:00pm 30.6 NNW 25 36 1007.7 - 0.0 - - 10 - - - -
22/01:30pm 31.3 N 23 34 1008.4 - 0.0 - - 10 - - - -
22/01:10pm 30.9 N 21 35 1008.5 - 0.0 - - 10 - - - -
22/01:00pm 30.5 N 21 30 1008.6 - 0.0 - - 10 - - - -
22/12:48pm 29.7 N 19 29 1008.8 - 0.0 - - 10 - - - -
22/12:30pm 29.4 NNE 19 25 1009.0 - 0.0 - - 10 - - - -
22/12:00pm 27.9 N 21 27 1009.3 - 0.0 - Mostly clear 10 - - - -
22/11:30am 28.4 N 19 25 1010.0 - 0.0 - - 10 - - - -
22/11:01am 27.0 NNE 18 28 1010.7 - 0.0 - - 10 - - - -
22/11:00am 26.9 NNE 19 28 1010.7 - 0.0 - - 10 - - - -
22/10:30am 25.7 NNE 20 27 1011.3 - 0.0 - - 10 - - - -
22/10:00am 24.4 NNE 19 24 1011.5 - 0.0 - - 10 - - - -
22/09:30am 22.4 NNE 20 26 1011.6 - 0.0 - - 10 - - - -
22/09:00am 20.4 NNE 17 23 1011.9 - 0.0 - - 10 - - - -
22/08:30am 17.3 NNE 13 19 1012.0 - 0.0 - - 10 - - - -
22/08:00am 15.6 NNE 13 16 1012.3 - 0.0 - - 10 - - - -
22/07:30am 14.1 NNE 10 14 1012.2 - 0.0 - - 10 - - - -
22/07:00am 12.9 NNE 10 13 1012.3 - 0.0 - - 10 - - - -
22/06:30am 12.6 NE 10 12 1012.5 - 0.0 - - 10 - - - -
22/06:00am 12.7 NE 10 11 1012.4 - 0.0 - - 10 - - - -
22/05:30am 12.5 NE 9 11 1012.6 - 0.0 - - 10 - - - -
22/05:00am 12.3 NE 8 11 1012.5 - 0.0 - - 10 - - - -
22/04:30am 12.6 NE 9 13 1012.6 - 0.0 - - 10 - - - -
22/04:00am 13.0 NE 9 12 1012.9 - 0.0 - - 10 - - - -
22/03:30am 13.3 NE 9 11 1013.5 - 0.0 - - 10 - - - -
22/03:00am 13.5 NE 9 12 1013.9 - 0.0 - - 10 - - - -
22/02:30am 13.3 NE 8 11 1014.3 - 0.0 - - 10 - - - -
22/02:00am 13.9 NE 11 15 1014.6 - 0.0 - - 10 - - - -
22/01:30am 14.0 NE 10 16 1015.1 - 0.0 - - 10 - - - -
22/01:00am 14.1 NE 10 14 1015.5 - 0.0 - - 10 - - - -
22/12:30am 14.4 NE 10 14 1015.9 - 0.0 - - 10 - - - -
22/12:00am 14.9 NE 11 16 1016.0 - 0.0 - - 10 - - - -
 
Date/Time
EDT
Temp
°C
Wind Pressure Rain since
9am
mm
Weather Cloud Vis
km
Sea
Height
m
Swell
Dir  Spd
kts
Gust
kts
hPa Trend Height
m
Period
s
Dir
21/11:30pm 15.3 NE 9 16 1016.3 - 0.0 - - 10 - - - -
21/11:00pm 14.9 NE 6 9 1016.6 - 0.0 - - 10 - - - -
21/10:30pm 14.7 NE 7 9 1016.7 - 0.0 - - 10 - - - -
21/10:00pm 14.0 E 5 6 1016.8 - 0.0 - - 10 - - - -
21/09:30pm 14.4 ESE 6 8 1016.8 - 0.0 - - 10 - - - -
21/09:00pm 14.8 ESE 7 9 1016.6 - 0.0 - - 10 - - - -
21/08:30pm 15.8 SE 8 11 1016.6 - 0.0 - - 10 - - - -
21/08:00pm 16.9 SE 8 10 1016.4 - 0.0 - - 10 - - - -
21/07:30pm 17.9 SE 10 13 1016.3 - 0.0 - - 10 - - - -
21/07:00pm 18.6 SSE 11 15 1016.5 - 0.0 - - 10 - - - -
21/06:30pm 19.3 SSE 12 16 1016.6 - 0.0 - - 10 - - - -
21/06:00pm 19.2 SSE 14 18 1016.8 - 0.0 - - 10 - - - -
21/05:30pm 20.0 SE 13 16 1016.8 - 0.0 - - 10 - - - -
21/05:00pm 20.3 SE 13 17 1017.0 - 0.0 - - 10 - - - -
21/04:30pm 20.1 SSE 13 16 1017.7 - 0.0 - - 10 - - - -
21/04:00pm 20.4 SSE 12 16 1017.9 - 0.0 - - 10 - - - -
21/03:30pm 21.9 SE 12 17 1018.2 - 0.0 - - 10 - - - -
21/03:00pm 22.2 N 4 7 1018.8 - 0.0 - - 10 - - - -
21/02:30pm 21.1 NW 4 8 1019.1 - 0.0 - - 10 - - - -
21/02:00pm 20.7 S 4 6 1019.5 - 0.0 - - 10 - - - -
21/01:30pm 20.3 NE 7 12 1020.0 - 0.0 - Partly cloudy 10 - - - -
21/01:00pm 20.0 ENE 5 10 1020.5 - 0.0 - Partly cloudy 10 - - - -
21/12:30pm 19.9 NNW 4 9 1020.7 - 0.0 - Partly cloudy 10 - - - -

Other Formats:

Comma delimited format used in spreadsheet applications
http://www.bom.gov.au/fwo/IDV60701/IDV60701.94837.axf

JavaScript Object Notation format (JSON) in row-major order
http://www.bom.gov.au/fwo/IDV60701/IDV60701.94837.json